• Join FlightAware (Why Join?)
  • Login
  • US Flag 
Gobble Gobble! 
11:30AM EST


 

Airport Tracker/Info


-or-


 

Live Flight TrackerFlight Track Log ✈ N960DL ✈ 27-Apr-2013 ✈ KATL - KCAE

Flight Track Log - Related Links

Times and Time Zones

All times are in EDT time to prevent confusion due to time zone crossing. See the N960DL flight status page for this flight to view local times or setup timezone preferences in your user account.

Time Position Orientation Groundspeed Altitude Reporting Facility
EDT Latitude Longitude Course Direction KTS MPH feet Rate Location/Type
04:38PM 33.6333 -84.3833 121° Southeast 172 198 2,400  Level Atlanta TRACON
04:39PM 33.6333 -84.3167 90° East 251 289 4,600 2,760 Climbing Atlanta TRACON
04:40PM 33.6333 -84.2167 90° East 288 331 8,000 2,640 Climbing Atlanta TRACON
04:41PM 33.7095 -84.0169 118° Southeast  Level FlightAware Approximate
04:42PM 33.6560 -83.8944 118° Southeast  Level FlightAware Approximate
04:42PM 33.6022 -84.0339 102° East 332 382 12,000  Level Atlanta Center
04:43PM 33.6024 -83.7720 118° Southeast  Level FlightAware Approximate
04:43PM 33.5856 -83.8992 98° East 382 440 13,900  Level Atlanta Center
04:44PM 33.5434 -83.6534 121° Southeast  Level FlightAware Approximate
04:44PM 33.5622 -83.7522 101° East 433 498 16,700  Level Atlanta Center
04:45PM 33.5514 -83.6200 96° East 445 512 18,600 2,040 Climbing Atlanta Center
04:46PM 33.5717 -83.4653 81° East 460 529 20,800 2,100 Climbing Atlanta Center
04:47PM 33.5897 -83.3056 82° East 475 547 22,900 1,080 Climbing Atlanta Center
04:48PM 33.6094 -83.1483 81° East 475 547 23,000  Climbing Atlanta Center
04:49PM 33.6311 -82.9908 81° East 480 552 23,000  Level Atlanta Center
04:50PM 33.6525 -82.8308 81° East 486 559 23,000  Level Atlanta Center
04:51PM 33.6719 -82.6733 82° East 480 552 23,000 -900 Level Atlanta Center
04:52PM 33.6908 -82.5058 82° East 480 552 21,300 -2,160 Descending Atlanta Center
04:54PM 33.7200 -82.2533 82° East 437 503 17,000 -2,460 Descending Jacksonville Center
04:55PM 33.7381 -82.1158 81° East 425 489 14,600 -2,400 Descending Jacksonville Center
04:56PM 33.7539 -81.9758 82° East 425 489 12,200 -1,860 Descending Jacksonville Center
04:57PM 33.7694 -81.8508 81° East 406 467 10,900 -1,200 Descending Jacksonville Center
04:58PM 33.7978 -81.7456 72° East 362 417 9,900 -1,320 Descending Jacksonville Center
04:59PM 33.8303 -81.6500 68° East 325 374 8,300 -1,560 Descending Jacksonville Center
05:00PM 33.8586 -81.5669 68° East 289 333 6,800 -1,800 Descending Jacksonville Center
05:01PM 33.8869 -81.4842 68° East 269 310 4,700 -2,040 Descending Jacksonville Center
05:02PM 33.9133 -81.4061 68° East 257 296 2,800 -1,140 Descending Jacksonville Center
05:03PM 33.9394 -81.3356 66° East 247 284 2,500 -300 Descending Jacksonville Center
05:04PM 33.9594 -81.2700 70° East 221 254 2,200 -300 Descending Jacksonville Center
05:05PM 33.9817 -81.1997 69° East 210 242 2,000 -240 Descending Jacksonville Center